Time;durP1;ratioP1;P1;durP2;ratioP2;P2;SDS_P1;SDS_P2;PMS_P1;PMS_P2;Temp;Humidity;BMP_temperature;BMP_pressure;BME280_temperature;BME280_humidity;BME280_pressure;Samples;Min_cycle;Max_cycle;Signal;HPM_P1;HPM_P2
2022/07/05 00:02:15;;;;;;;3.55;2.72;;;17.90;99.90;;;;;;5241488;28;20028;-70
2022/07/05 00:04:50;;;;;;;2.22;1.83;;;17.80;99.90;;;;;;5231928;28;20221;-72
2022/07/05 00:07:27;;;;;;;;;;;17.80;99.90;;;;;;5243298;28;20036;-71
2022/07/05 00:09:58;;;;;;;2.65;2.17;;;17.80;99.90;;;;;;5241457;28;19917;-70
2022/07/05 00:12:34;;;;;;;2.30;2.10;;;17.70;99.90;;;;;;5241168;28;20020;-71
2022/07/05 00:18:37;;;;;;;2.85;2.40;;;17.60;99.90;;;;;;5260240;28;20016;-71
2022/07/05 00:21:09;;;;;;;2.13;1.92;;;17.50;99.90;;;;;;5263119;28;20039;-71
2022/07/05 00:23:43;;;;;;;2.30;1.90;;;17.40;99.90;;;;;;5244542;28;20032;-71
2022/07/05 00:26:14;;;;;;;2.30;2.00;;;17.40;99.90;;;;;;5260116;28;20290;-70
2022/07/05 00:28:48;;;;;;;2.38;2.17;;;17.40;99.90;;;;;;5226442;28;20032;-70
2022/07/05 00:31:19;;;;;;;5.03;2.20;;;17.40;99.90;;;;;;5240680;28;20032;-70
2022/07/05 00:33:50;;;;;;;2.10;1.90;;;17.30;99.90;;;;;;5241549;28;20043;-70
2022/07/05 00:36:24;;;;;;;2.88;1.85;;;17.30;99.90;;;;;;5241979;28;20035;-70
2022/07/05 00:38:56;;;;;;;2.47;2.17;;;17.20;99.90;;;;;;5259684;28;20028;-72
2022/07/05 00:41:28;;;;;;;2.20;2.00;;;17.20;99.90;;;;;;5242038;28;20028;-70
2022/07/05 00:44:08;;;;;;;2.90;2.45;;;17.20;99.90;;;;;;5241205;28;20044;-70
2022/07/05 00:46:42;;;;;;;2.22;2.03;;;17.20;99.90;;;;;;5241650;28;20021;-71
2022/07/05 00:49:14;;;;;;;2.47;2.17;;;17.20;99.90;;;;;;5241977;28;20036;-71
2022/07/05 00:51:48;;;;;;;2.38;1.70;;;17.10;99.90;;;;;;5224504;28;20038;-71
2022/07/05 00:54:20;;;;;;;2.25;1.63;;;17.10;99.90;;;;;;5209853;28;20037;-71
2022/07/05 00:56:52;;;;;;;2.17;1.90;;;17.10;99.90;;;;;;5225087;28;20033;-73
2022/07/05 00:59:27;;;;;;;3.05;1.67;;;17.10;99.90;;;;;;5242250;28;20035;-71
2022/07/05 01:01:58;;;;;;;2.15;1.92;;;17.10;99.90;;;;;;5241884;28;20032;-71
2022/07/05 01:04:30;;;;;;;1.90;1.70;;;17.00;99.90;;;;;;5230554;28;20216;-72
2022/07/05 01:07:03;;;;;;;1.92;1.73;;;17.10;99.90;;;;;;5241828;28;20032;-71
2022/07/05 01:09:35;;;;;;;1.95;1.75;;;17.10;99.90;;;;;;5240312;28;20050;-70
2022/07/05 01:12:09;;;;;;;2.28;1.70;;;17.10;99.90;;;;;;5258524;28;20024;-71
2022/07/05 01:14:41;;;;;;;2.65;1.98;;;17.10;99.90;;;;;;5241701;28;20024;-71
2022/07/05 01:17:15;;;;;;;2.38;2.03;;;17.10;99.90;;;;;;5238895;28;20029;-71
2022/07/05 01:19:46;;;;;;;2.47;1.95;;;17.10;99.90;;;;;;5258533;28;20036;-70
2022/07/05 01:22:23;;;;;;;2.00;1.85;;;17.10;99.90;;;;;;5259283;28;20034;-72
2022/07/05 01:24:55;;;;;;;1.90;1.67;;;17.20;99.90;;;;;;5258891;28;20017;-71
2022/07/05 01:27:30;;;;;;;1.70;1.60;;;17.20;99.90;;;;;;5258457;28;20039;-71
2022/07/05 01:30:01;;;;;;;5.07;1.77;;;17.20;99.90;;;;;;5258178;28;20024;-71
2022/07/05 01:32:33;;;;;;;1.98;1.77;;;17.20;99.90;;;;;;5223722;28;20043;-71
2022/07/05 01:35:20;;;;;;;2.47;2.22;;;17.20;99.90;;;;;;5225583;28;20033;-71
2022/07/05 01:37:54;;;;;;;2.17;1.98;;;17.20;99.90;;;;;;5261807;28;20031;-72
2022/07/05 01:40:30;;;;;;;2.47;2.28;;;17.20;99.90;;;;;;5263452;28;20047;-71
2022/07/05 01:43:03;;;;;;;3.85;2.03;;;17.20;99.90;;;;;;5262571;28;20035;-71
2022/07/05 01:49:08;;;;;;;1.77;1.67;;;17.20;99.90;;;;;;5263680;28;20023;-71
2022/07/05 01:55:09;;;;;;;2.63;2.28;;;17.30;99.90;;;;;;5244603;28;20024;-71
2022/07/05 01:57:40;;;;;;;3.25;1.80;;;17.30;99.90;;;;;;5227116;28;20039;-71
2022/07/05 02:00:13;;;;;;;2.45;2.05;;;17.40;99.90;;;;;;5262244;28;20032;-72
2022/07/05 02:02:46;;;;;;;2.83;2.05;;;17.40;99.90;;;;;;5262447;28;20024;-71
2022/07/05 02:05:17;;;;;;;6.97;3.25;;;17.40;99.90;;;;;;5243672;28;20029;-72
2022/07/05 02:07:50;;;;;;;2.70;1.92;;;17.50;99.90;;;;;;5260205;28;20028;-71
2022/07/05 02:10:25;;;;;;;2.37;2.13;;;17.50;99.90;;;;;;5242473;28;20044;-71
2022/07/05 02:12:56;;;;;;;2.50;1.70;;;17.60;99.90;;;;;;5244666;28;20036;-71
2022/07/05 02:15:35;;;;;;;2.05;1.85;;;17.60;99.90;;;;;;5243936;28;20035;-71
2022/07/05 02:18:11;;;;;;;4.45;2.38;;;17.60;99.90;;;;;;5263112;28;20058;-71
2022/07/05 02:20:44;;;;;;;2.17;1.98;;;17.60;99.90;;;;;;5243907;28;20332;-71
2022/07/05 02:23:20;;;;;;;1.98;1.77;;;17.60;99.90;;;;;;5228760;28;20035;-71
2022/07/05 02:25:51;;;;;;;2.03;1.50;;;17.60;99.90;;;;;;5262554;28;20028;-71
2022/07/05 02:28:25;;;;;;;2.17;1.95;;;17.60;99.90;;;;;;5244208;28;20202;-72
2022/07/05 02:30:59;;;;;;;2.27;2.07;;;17.60;99.90;;;;;;5228162;28;20040;-70
2022/07/05 02:33:30;;;;;;;2.95;1.92;;;17.60;99.90;;;;;;5244697;28;20435;-70
2022/07/05 02:36:13;;;;;;;3.08;2.08;;;17.60;99.90;;;;;;5243137;28;20030;-71
2022/07/05 02:38:45;;;;;;;1.70;1.60;;;17.60;99.90;;;;;;5231111;28;20032;-70
2022/07/05 02:41:22;;;;;;;1.77;1.65;;;17.60;99.90;;;;;;5267160;28;20034;-71
2022/07/05 02:43:53;;;;;;;2.08;1.80;;;17.60;99.90;;;;;;5247073;28;20028;-71
2022/07/05 02:46:24;;;;;;;4.05;1.92;;;17.60;99.90;;;;;;5262779;28;20034;-71
2022/07/05 02:48:56;;;;;;;2.33;2.13;;;17.60;99.90;;;;;;5263309;28;20032;-71
2022/07/05 02:51:30;;;;;;;1.88;1.75;;;17.60;99.90;;;;;;5244584;28;20032;-70
2022/07/05 02:54:03;;;;;;;2.72;2.22;;;17.60;99.90;;;;;;5244427;28;20029;-70
2022/07/05 02:56:35;;;;;;;2.45;2.25;;;17.60;99.90;;;;;;5261815;28;20218;-70
2022/07/05 02:59:11;;;;;;;1.83;1.73;;;17.60;99.90;;;;;;5262616;28;20316;-71
2022/07/05 03:01:42;;;;;;;1.63;1.52;;;17.60;99.90;;;;;;5243556;28;20297;-70
2022/07/05 03:04:14;;;;;;;2.60;2.08;;;17.60;99.90;;;;;;5234200;28;20027;-72
2022/07/05 03:06:53;;;;;;;2.63;2.25;;;17.60;99.90;;;;;;5242819;28;20043;-70
2022/07/05 03:09:24;;;;;;;2.17;1.98;;;17.50;99.90;;;;;;5243022;28;20028;-72
2022/07/05 03:11:55;;;;;;;2.15;1.90;;;17.60;99.90;;;;;;5242610;28;20032;-71
2022/07/05 03:14:32;;;;;;;2.47;2.20;;;17.60;99.90;;;;;;5260406;28;20028;-71
2022/07/05 03:17:03;;;;;;;3.25;2.22;;;17.60;99.90;;;;;;5242658;28;20024;-71
2022/07/05 03:19:37;;;;;;;2.20;2.00;;;17.60;99.90;;;;;;5261578;28;20024;-70
2022/07/05 03:22:11;;;;;;;1.67;1.58;;;17.70;99.90;;;;;;5242727;28;20035;-70
2022/07/05 03:24:48;;;;;;;3.37;1.90;;;17.80;99.90;;;;;;5261368;28;20024;-70
2022/07/05 03:27:21;;;;;;;1.80;1.70;;;17.90;99.90;;;;;;5260720;28;20030;-70
2022/07/05 03:29:56;;;;;;;2.88;2.47;;;18.10;99.90;;;;;;5266970;28;20033;-70
2022/07/05 03:32:29;;;;;;;2.08;1.98;;;18.10;99.90;;;;;;5270230;28;20024;-70
2022/07/05 03:35:00;;;;;;;2.40;2.20;;;18.30;99.90;;;;;;5253189;28;20046;-72
2022/07/05 03:37:37;;;;;;;3.00;2.65;;;18.40;99.90;;;;;;5254502;28;20103;-71
2022/07/05 03:40:09;;;;;;;3.28;2.78;;;18.60;99.90;;;;;;5250636;28;20033;-70
2022/07/05 03:42:40;;;;;;;3.35;2.45;;;18.90;99.90;;;;;;5247808;28;20040;-70
2022/07/05 03:45:14;;;;;;;2.88;2.35;;;19.30;99.90;;;;;;5262119;28;20021;-70
2022/07/05 03:47:56;;;;;;;2.60;2.40;;;19.40;99.90;;;;;;5242991;28;20020;-69
2022/07/05 03:50:30;;;;;;;2.10;1.90;;;19.40;99.90;;;;;;5243492;28;20038;-70
2022/07/05 03:53:03;;;;;;;2.65;2.45;;;19.40;99.90;;;;;;5261781;28;20032;-69
2022/07/05 03:55:38;;;;;;;2.07;1.90;;;19.50;99.90;;;;;;5242293;28;20317;-69
2022/07/05 03:58:14;;;;;;;;;;;19.50;99.90;;;;;;5261717;28;20025;-69
2022/07/05 04:00:47;;;;;;;3.88;2.30;;;19.50;99.90;;;;;;5242326;28;20086;-68
2022/07/05 04:03:20;;;;;;;8.77;1.95;;;19.50;99.90;;;;;;5261171;28;20102;-68
2022/07/05 04:05:55;;;;;;;3.30;2.25;;;19.50;99.90;;;;;;5249283;28;20050;-68
2022/07/05 04:08:26;;;;;;;2.53;2.33;;;19.50;99.90;;;;;;5260296;28;20193;-67
2022/07/05 04:10:58;;;;;;;1.85;1.73;;;19.60;99.90;;;;;;5239899;28;20044;-67
2022/07/05 04:13:32;;;;;;;5.50;2.00;;;19.60;99.90;;;;;;5241509;28;20035;-67
2022/07/05 04:16:03;;;;;;;2.10;1.90;;;19.60;99.90;;;;;;5223527;28;20036;-68
2022/07/05 04:18:35;;;;;;;1.60;1.50;;;19.70;99.90;;;;;;5260796;28;20020;-68
2022/07/05 04:21:06;;;;;;;4.03;2.28;;;19.70;99.90;;;;;;5241671;28;20331;-67
2022/07/05 04:23:38;;;;;;;1.92;1.70;;;19.70;99.90;;;;;;5260711;28;20185;-69
2022/07/05 04:26:14;;;;;;;1.90;1.73;;;19.80;99.90;;;;;;5242176;28;20042;-68
2022/07/05 04:28:48;;;;;;;1.60;1.50;;;19.80;99.90;;;;;;5242245;28;20029;-68
2022/07/05 04:31:19;;;;;;;1.42;1.33;;;19.80;99.90;;;;;;5241941;28;20206;-68
2022/07/05 04:33:50;;;;;;;2.42;1.60;;;19.80;99.90;;;;;;5260544;28;20037;-68
2022/07/05 04:36:27;;;;;;;2.05;1.83;;;19.80;99.90;;;;;;5259565;28;20021;-69
2022/07/05 04:39:02;;;;;;;1.65;1.42;;;19.80;99.90;;;;;;5234915;28;20392;-68
2022/07/05 04:41:37;;;;;;;1.52;1.42;;;19.80;99.90;;;;;;5240361;28;20324;-69
2022/07/05 04:44:08;;;;;;;1.70;1.50;;;19.90;99.90;;;;;;5240665;28;20209;-69
2022/07/05 04:46:39;;;;;;;3.63;1.55;;;19.80;99.90;;;;;;5259852;28;20029;-70
2022/07/05 04:49:10;;;;;;;1.92;1.73;;;19.90;99.90;;;;;;5241791;28;20313;-70
2022/07/05 04:51:47;;;;;;;1.73;1.63;;;19.90;99.90;;;;;;5242046;28;20107;-70
2022/07/05 04:54:19;;;;;;;2.17;1.92;;;19.90;99.90;;;;;;5260156;28;20031;-71
2022/07/05 04:56:50;;;;;;;1.33;1.23;;;19.90;99.90;;;;;;5259492;28;20031;-70
2022/07/05 04:59:21;;;;;;;1.73;1.63;;;19.90;99.90;;;;;;5224874;28;20035;-70
2022/07/05 05:01:57;;;;;;;1.80;1.70;;;19.90;99.90;;;;;;5240604;28;20033;-69
2022/07/05 05:04:29;;;;;;;2.00;1.80;;;19.90;99.90;;;;;;5232054;28;20053;-70
2022/07/05 05:07:02;;;;;;;1.88;1.77;;;19.90;99.90;;;;;;5241136;28;20028;-70
2022/07/05 05:09:38;;;;;;;1.90;1.65;;;20.00;99.90;;;;;;5260707;28;20032;-70
2022/07/05 05:12:12;;;;;;;1.92;1.40;;;20.00;99.90;;;;;;5263632;28;20038;-65
2022/07/05 05:14:43;;;;;;;1.53;1.43;;;19.90;99.90;;;;;;5240763;28;20043;-68
2022/07/05 05:17:17;;;;;;;1.92;1.50;;;19.90;99.90;;;;;;5261798;28;20445;-68
2022/07/05 05:19:49;;;;;;;1.20;1.10;;;19.90;99.90;;;;;;5264417;28;20038;-68
2022/07/05 05:22:21;;;;;;;1.42;1.33;;;19.80;99.90;;;;;;5247105;28;20028;-68
2022/07/05 05:24:54;;;;;;;2.00;1.30;;;19.80;99.90;;;;;;5228394;28;20037;-66
2022/07/05 05:27:43;;;;;;;1.35;1.25;;;19.70;99.90;;;;;;5243252;28;20036;-67
2022/07/05 05:30:21;;;;;;;1.70;1.48;;;19.70;99.90;;;;;;5245537;28;20062;-68
2022/07/05 05:33:04;;;;;;;1.60;1.50;;;19.60;99.90;;;;;;5224763;28;20035;-67
2022/07/05 05:35:41;;;;;;;3.53;1.83;;;19.60;99.90;;;;;;5229980;28;20028;-68
2022/07/05 05:38:18;;;;;;;1.73;1.50;;;19.50;99.90;;;;;;5245842;28;20028;-68
2022/07/05 05:40:49;;;;;;;1.20;1.00;;;19.30;99.90;;;;;;5245509;28;20047;-69
2022/07/05 05:43:23;;;;;;;1.70;1.58;;;19.20;99.90;;;;;;5244663;28;20036;-70
2022/07/05 05:45:54;;;;;;;3.17;2.17;;;19.20;99.90;;;;;;5244094;28;20037;-69
2022/07/05 05:48:25;;;;;;;1.42;1.30;;;19.20;99.90;;;;;;5262503;28;20020;-70
2022/07/05 05:51:02;;;;;;;2.33;1.50;;;19.20;99.90;;;;;;5243347;28;20054;-70
2022/07/05 05:53:33;;;;;;;1.83;1.67;;;19.30;99.90;;;;;;5244333;28;20217;-71
2022/07/05 05:56:04;;;;;;;1.80;1.60;;;19.30;99.90;;;;;;5243990;28;20027;-70
2022/07/05 05:58:38;;;;;;;1.70;1.50;;;19.30;99.90;;;;;;5228657;28;20036;-71
2022/07/05 06:01:12;;;;;;;1.60;1.50;;;19.30;99.90;;;;;;5228203;28;20032;-71
2022/07/05 06:03:43;;;;;;;1.33;1.23;;;19.40;99.90;;;;;;5263057;28;20029;-71
2022/07/05 06:06:20;;;;;;;1.23;1.13;;;19.40;99.90;;;;;;5251203;28;20052;-71
2022/07/05 06:08:53;;;;;;;1.70;1.48;;;19.40;99.90;;;;;;5244956;28;20020;-70
2022/07/05 06:11:27;;;;;;;1.70;1.40;;;19.50;99.90;;;;;;5262453;28;20036;-70
2022/07/05 06:13:58;;;;;;;1.02;0.85;;;19.50;99.90;;;;;;5244964;28;20257;-70
2022/07/05 06:16:29;;;;;;;1.30;1.20;;;19.50;99.90;;;;;;5243471;28;20032;-69
2022/07/05 06:19:01;;;;;;;1.05;1.05;;;19.60;99.90;;;;;;5245039;28;20032;-70
2022/07/05 06:21:37;;;;;;;1.60;1.50;;;19.60;99.90;;;;;;5261637;28;20091;-71
2022/07/05 06:24:08;;;;;;;1.25;1.15;;;19.70;99.90;;;;;;5247462;28;20039;-70
2022/07/05 06:26:40;;;;;;;1.27;1.10;;;19.70;99.90;;;;;;5269184;28;20021;-70
2022/07/05 06:29:15;;;;;;;1.40;1.30;;;19.70;99.90;;;;;;5265676;28;20189;-71
2022/07/05 06:31:47;;;;;;;2.40;1.50;;;19.80;99.90;;;;;;5228747;28;20033;-70
2022/07/05 06:34:18;;;;;;;3.67;1.25;;;20.00;99.90;;;;;;5245838;28;20306;-70
2022/07/05 06:36:50;;;;;;;1.52;1.42;;;20.00;99.90;;;;;;5245044;28;20205;-69
2022/07/05 06:39:21;;;;;;;1.48;1.38;;;20.00;99.90;;;;;;5263021;28;20035;-70
2022/07/05 06:41:55;;;;;;;1.38;1.23;;;20.10;99.90;;;;;;5245126;28;20032;-70
2022/07/05 06:44:26;;;;;;;1.17;1.08;;;20.20;99.90;;;;;;5245726;28;20020;-70
2022/07/05 06:46:57;;;;;;;1.48;1.35;;;20.20;99.90;;;;;;5243618;28;20446;-64
2022/07/05 06:49:31;;;;;;;1.20;1.13;;;20.10;99.90;;;;;;5238375;28;20050;-65
2022/07/05 06:52:08;;;;;;;1.17;1.00;;;20.00;99.90;;;;;;5220625;28;20032;-65
2022/07/05 06:54:41;;;;;;;1.15;1.10;;;19.90;99.90;;;;;;5221846;28;20025;-65
2022/07/05 06:57:20;;;;;;;1.00;0.93;;;19.90;99.90;;;;;;5221878;28;20229;-64
2022/07/05 06:59:55;;;;;;;1.20;1.10;;;19.90;99.90;;;;;;5240040;28;20043;-65
2022/07/05 07:02:30;;;;;;;1.05;1.05;;;19.90;99.90;;;;;;5228924;28;20305;-63
2022/07/05 07:05:01;;;;;;;1.10;1.00;;;19.90;99.90;;;;;;5244070;28;20036;-65
2022/07/05 07:10:22;;;;;;;0.90;0.90;;;20.10;99.90;;;;;;5243487;28;20034;-63
2022/07/05 07:12:54;;;;;;;1.35;1.00;;;20.30;99.90;;;;;;5244342;28;20020;-65
2022/07/05 07:15:29;;;;;;;1.08;1.02;;;20.40;99.90;;;;;;5231590;28;20036;-64
2022/07/05 07:18:02;;;;;;;1.02;1.02;;;20.50;99.90;;;;;;5239922;28;20221;-65
2022/07/05 07:20:34;;;;;;;1.20;1.10;;;20.70;99.90;;;;;;5221309;28;20032;-66
2022/07/05 07:23:07;;;;;;;0.93;0.93;;;20.80;99.90;;;;;;5244121;28;20033;-64
2022/07/05 07:25:39;;;;;;;1.02;1.02;;;20.80;99.90;;;;;;5237873;28;20255;-65
2022/07/05 07:28:13;;;;;;;0.80;0.80;;;20.90;99.90;;;;;;5248814;28;20221;-65
2022/07/05 07:30:44;;;;;;;0.93;0.93;;;21.10;99.90;;;;;;5239482;28;20036;-65
2022/07/05 07:33:19;;;;;;;1.10;0.77;;;21.10;99.90;;;;;;5239321;28;20024;-65
2022/07/05 07:35:52;;;;;;;0.80;0.80;;;21.20;99.90;;;;;;5250873;28;20024;-66
2022/07/05 07:38:25;;;;;;;0.70;0.70;;;21.30;99.90;;;;;;5257117;28;20016;-65
2022/07/05 07:40:57;;;;;;;0.70;0.70;;;21.30;99.90;;;;;;5242527;28;20197;-65
2022/07/05 07:43:31;;;;;;;0.88;0.88;;;21.10;99.90;;;;;;5230029;28;20233;-65
2022/07/05 07:46:02;;;;;;;2.92;0.75;;;21.10;99.90;;;;;;5221146;28;20038;-64
2022/07/05 07:48:33;;;;;;;0.45;0.45;;;21.20;99.90;;;;;;5221959;28;20633;-65
2022/07/05 07:51:04;;;;;;;0.50;0.50;;;21.10;99.90;;;;;;5239663;28;20289;-62
2022/07/05 07:53:36;;;;;;;1.13;0.50;;;21.10;99.90;;;;;;5222556;28;20212;-66
2022/07/05 07:56:07;;;;;;;0.43;0.43;;;21.10;99.90;;;;;;5220902;28;20126;-63
2022/07/05 07:58:41;;;;;;;0.60;0.60;;;21.10;99.90;;;;;;5240203;28;20025;-66
2022/07/05 08:01:14;;;;;;;0.50;0.50;;;21.20;99.90;;;;;;5237472;28;20228;-66
2022/07/05 08:03:51;;;;;;;0.50;0.50;;;21.20;99.90;;;;;;5234455;28;20327;-64
2022/07/05 08:06:23;;;;;;;0.50;0.50;;;21.40;99.90;;;;;;5227926;28;20270;-65
2022/07/05 08:08:54;;;;;;;0.50;0.50;;;21.30;99.90;;;;;;5232005;28;20042;-66
2022/07/05 08:11:27;;;;;;;0.55;0.50;;;21.40;99.90;;;;;;5246692;28;20305;-66
2022/07/05 08:14:01;;;;;;;0.60;0.60;;;21.30;99.90;;;;;;5205210;28;20039;-64
2022/07/05 08:16:35;;;;;;;0.50;0.50;;;21.20;99.90;;;;;;5239148;28;20021;-67
2022/07/05 08:21:55;;;;;;;0.75;0.60;;;21.20;99.90;;;;;;5243587;28;20024;-66
2022/07/05 08:24:27;;;;;;;0.60;0.60;;;21.10;99.90;;;;;;5237352;28;20035;-67
2022/07/05 08:26:58;;;;;;;0.52;0.52;;;21.20;99.90;;;;;;5242665;28;20034;-66
2022/07/05 08:29:32;;;;;;;0.50;0.50;;;21.30;99.90;;;;;;5249862;28;20024;-66
2022/07/05 08:32:07;;;;;;;1.50;0.43;;;21.40;99.90;;;;;;5252901;28;20024;-66
2022/07/05 08:34:42;;;;;;;0.50;0.50;;;21.10;99.90;;;;;;5233307;28;20313;-64
2022/07/05 08:37:13;;;;;;;0.45;0.45;;;21.00;99.90;;;;;;5221774;28;20028;-65
2022/07/05 08:39:54;;;;;;;0.50;0.50;;;21.00;99.90;;;;;;5258525;28;20027;-65
2022/07/05 08:42:26;;;;;;;0.60;0.60;;;20.90;99.90;;;;;;5257645;28;20327;-66
2022/07/05 08:44:59;;;;;;;0.68;0.68;;;20.90;99.90;;;;;;5220747;28;20028;-64
2022/07/05 08:47:32;;;;;;;0.50;0.50;;;21.00;99.90;;;;;;5218626;28;20032;-65
2022/07/05 08:50:04;;;;;;;1.85;0.80;;;20.90;99.90;;;;;;5251702;28;20020;-63
2022/07/05 08:52:40;;;;;;;0.70;0.70;;;21.00;99.90;;;;;;5248320;28;20036;-64
2022/07/05 08:55:13;;;;;;;0.82;0.70;;;21.10;99.90;;;;;;5253074;28;20024;-65
2022/07/05 08:57:47;;;;;;;1.05;0.88;;;21.00;99.90;;;;;;5236665;28;20226;-64
2022/07/05 09:00:18;;;;;;;0.80;0.80;;;20.70;99.90;;;;;;5235754;28;20028;-64
2022/07/05 09:02:52;;;;;;;0.63;0.63;;;20.60;99.90;;;;;;5236189;28;20331;-64
2022/07/05 09:05:29;;;;;;;0.70;0.70;;;20.50;99.90;;;;;;5211416;28;20254;-63
2022/07/05 09:08:01;;;;;;;0.70;0.70;;;20.60;99.90;;;;;;5229585;28;20021;-65
2022/07/05 09:10:36;;;;;;;0.75;0.70;;;20.60;99.90;;;;;;5215198;28;20041;-64
2022/07/05 09:13:07;;;;;;;0.90;0.90;;;20.80;99.90;;;;;;5236932;28;20025;-64
2022/07/05 09:15:39;;;;;;;0.60;0.60;;;20.80;99.90;;;;;;5252660;28;20028;-64
2022/07/05 09:18:36;;;;;;;1.05;0.95;;;20.70;99.90;;;;;;5235878;28;20029;-65
2022/07/05 09:21:13;;;;;;;0.77;0.77;;;20.60;99.90;;;;;;5230895;28;20028;-62
2022/07/05 09:23:56;;;;;;;0.90;0.70;;;20.80;99.90;;;;;;5213048;28;20033;-64
2022/07/05 09:26:33;;;;;;;0.90;0.90;;;20.60;99.90;;;;;;5215824;28;20032;-65
2022/07/05 09:29:09;;;;;;;1.10;0.93;;;20.80;99.90;;;;;;5237156;28;20026;-63
2022/07/05 09:31:44;;;;;;;0.73;0.73;;;20.80;99.90;;;;;;5252987;28;20240;-64
2022/07/05 09:34:19;;;;;;;0.70;0.70;;;20.90;99.90;;;;;;5216803;28;20066;-63
2022/07/05 09:36:58;;;;;;;0.80;0.80;;;20.60;99.90;;;;;;5219328;28;20183;-63
2022/07/05 09:39:32;;;;;;;0.82;0.82;;;20.50;99.90;;;;;;5202329;28;20032;-64
2022/07/05 09:42:23;;;;;;;1.00;0.93;;;20.60;99.90;;;;;;5238447;28;20035;-62
2022/07/05 09:44:56;;;;;;;1.15;0.80;;;20.90;99.90;;;;;;5236857;28;20044;-63
2022/07/05 09:47:32;;;;;;;0.82;0.82;;;20.70;99.90;;;;;;5219610;28;20021;-64
2022/07/05 09:50:05;;;;;;;2.45;0.90;;;20.70;99.90;;;;;;5237155;28;20042;-63
2022/07/05 09:52:38;;;;;;;5.93;0.90;;;20.70;99.90;;;;;;5236520;28;20029;-64
2022/07/05 09:55:18;;;;;;;1.35;1.25;;;20.80;99.90;;;;;;5214653;28;20021;-63
2022/07/05 09:57:50;;;;;;;0.90;0.90;;;20.90;99.90;;;;;;5219977;28;20198;-63
2022/07/05 10:00:23;;;;;;;0.90;0.90;;;20.80;99.90;;;;;;5201649;28;20128;-63
2022/07/05 10:03:02;;;;;;;1.30;0.90;;;20.90;99.90;;;;;;5222633;28;20332;-63
2022/07/05 10:05:38;;;;;;;0.80;0.80;;;21.20;99.90;;;;;;5229208;28;20048;-63
2022/07/05 10:08:13;;;;;;;1.42;0.93;;;21.00;99.90;;;;;;5222444;28;20333;-65
2022/07/05 10:10:47;;;;;;;0.70;0.70;;;20.90;99.90;;;;;;5207714;28;20037;-63
2022/07/05 10:13:21;;;;;;;;;;;20.90;99.90;;;;;;5257006;28;20237;-63
2022/07/05 10:15:56;;;;;;;1.20;1.10;;;20.80;99.90;;;;;;5261837;28;19900;-63
2022/07/05 10:18:31;;;;;;;1.30;1.00;;;20.80;99.90;;;;;;5262050;28;20024;-62
2022/07/05 10:21:07;;;;;;;1.00;0.90;;;20.70;99.90;;;;;;5254211;28;20302;-63
2022/07/05 10:23:51;;;;;;;1.20;1.10;;;21.00;99.90;;;;;;5240894;28;20031;-63
2022/07/05 10:26:23;;;;;;;1.55;1.00;;;20.90;99.90;;;;;;5223304;28;20019;-62
2022/07/05 10:28:55;;;;;;;0.90;0.90;;;20.60;99.90;;;;;;5243721;28;20038;-64
2022/07/05 10:31:29;;;;;;;1.40;1.30;;;20.60;99.90;;;;;;5241815;28;20055;-64
2022/07/05 10:34:07;;;;;;;1.13;1.00;;;20.50;99.90;;;;;;5262257;28;20083;-65
2022/07/05 10:36:42;;;;;;;1.65;1.05;;;20.30;99.90;;;;;;5259654;28;20020;-63
2022/07/05 10:39:15;;;;;;;1.63;1.30;;;20.10;99.90;;;;;;5222592;28;20186;-62
2022/07/05 10:41:48;;;;;;;1.38;1.27;;;19.80;99.90;;;;;;5213331;28;20412;-65
2022/07/05 10:44:31;;;;;;;1.65;1.55;;;19.30;99.90;;;;;;5243040;28;20181;-63
2022/07/05 10:47:10;;;;;;;1.80;1.70;;;19.10;99.90;;;;;;5243344;28;20032;-62
2022/07/05 10:50:03;;;;;;;1.80;1.70;;;18.90;99.90;;;;;;5243319;28;20306;-64
2022/07/05 10:52:37;;;;;;;2.08;1.98;;;18.90;99.90;;;;;;5223096;28;20341;-63
2022/07/05 10:55:22;;;;;;;1.95;1.77;;;18.90;99.90;;;;;;5241105;28;20347;-65
2022/07/05 10:58:30;;;;;;;1.88;1.77;;;19.00;99.90;;;;;;5205775;28;20032;-65
2022/07/05 11:01:22;;;;;;;2.00;1.90;;;19.20;99.90;;;;;;5240582;28;20034;-65
2022/07/05 11:04:06;;;;;;;2.70;2.10;;;19.30;99.90;;;;;;5222701;28;20026;-64
2022/07/05 11:06:38;;;;;;;1.98;1.75;;;19.40;99.90;;;;;;5224262;28;20049;-64
2022/07/05 11:09:13;;;;;;;2.20;2.00;;;19.60;99.90;;;;;;5218505;28;20024;-65
2022/07/05 11:11:51;;;;;;;1.85;1.75;;;19.60;99.90;;;;;;5219488;28;20150;-63
2022/07/05 11:14:25;;;;;;;1.90;1.80;;;20.00;99.90;;;;;;5233184;28;20031;-66
2022/07/05 11:17:08;;;;;;;2.30;2.10;;;20.40;99.90;;;;;;5223540;28;20220;-65
2022/07/05 11:20:03;;;;;;;1.75;1.65;;;20.40;99.90;;;;;;5261794;28;20024;-65
2022/07/05 11:22:58;;;;;;;2.20;2.00;;;20.50;99.90;;;;;;5240901;28;20043;-66
2022/07/05 11:25:39;;;;;;;1.67;1.58;;;20.30;99.90;;;;;;5240805;28;20313;-69
2022/07/05 11:28:19;;;;;;;2.20;2.00;;;20.30;99.90;;;;;;5241293;28;20027;-63
2022/07/05 11:30:59;;;;;;;2.00;1.90;;;20.10;99.90;;;;;;5239410;28;20042;-63
2022/07/05 11:33:38;;;;;;;2.10;2.00;;;20.10;99.90;;;;;;5240193;28;20021;-64
2022/07/05 11:36:24;;;;;;;2.30;2.10;;;20.10;99.90;;;;;;5222526;28;20286;-67
2022/07/05 11:39:17;;;;;;;2.47;2.28;;;19.80;99.90;;;;;;5220084;28;20032;-65
2022/07/05 11:41:52;;;;;;;2.50;2.30;;;19.60;99.90;;;;;;5200803;28;20017;-65
2022/07/05 11:44:24;;;;;;;2.70;2.50;;;19.40;99.90;;;;;;5221859;28;20192;-68
2022/07/05 11:47:01;;;;;;;2.40;2.20;;;19.40;99.90;;;;;;5204188;28;20333;-64
2022/07/05 11:49:35;;;;;;;2.38;2.13;;;19.30;99.90;;;;;;5240391;28;20023;-65
2022/07/05 11:52:06;;;;;;;2.67;2.47;;;19.30;99.90;;;;;;5240070;28;20030;-64
2022/07/05 11:54:38;;;;;;;2.60;2.17;;;19.30;99.90;;;;;;5243295;28;20175;-63
2022/07/05 11:57:10;;;;;;;4.43;2.33;;;19.40;99.90;;;;;;5239929;28;20024;-63
2022/07/05 11:59:45;;;;;;;2.30;2.10;;;19.60;99.90;;;;;;5202714;28;20052;-64
2022/07/05 12:02:17;;;;;;;;;;;19.80;99.90;;;;;;5220937;28;20214;-65
2022/07/05 12:04:49;;;;;;;2.65;2.45;;;19.80;99.90;;;;;;5229492;28;19916;-64
2022/07/05 12:07:28;;;;;;;2.80;2.33;;;19.90;99.90;;;;;;5238602;28;20232;-65
2022/07/05 12:12:53;;;;;;;2.38;2.17;;;20.10;99.90;;;;;;5220406;28;20312;-65
2022/07/05 12:15:26;;;;;;;2.05;1.95;;;20.30;99.90;;;;;;5205080;28;20319;-65
2022/07/05 12:18:03;;;;;;;2.30;2.10;;;20.30;99.90;;;;;;5215888;28;20293;-63
2022/07/05 12:20:41;;;;;;;2.45;2.25;;;20.50;99.90;;;;;;5238293;28;20028;-64
2022/07/05 12:23:15;;;;;;;2.00;1.80;;;20.50;99.90;;;;;;5239671;28;20301;-66
2022/07/05 12:25:47;;;;;;;3.58;1.90;;;20.60;99.90;;;;;;5237111;28;20035;-64
2022/07/05 12:28:18;;;;;;;2.20;1.90;;;20.50;99.90;;;;;;5193358;28;20184;-65
2022/07/05 12:30:50;;;;;;;2.15;2.00;;;20.40;99.90;;;;;;5238531;28;20031;-66
2022/07/05 12:33:21;;;;;;;2.15;1.90;;;20.30;99.90;;;;;;5229315;28;20025;-65
2022/07/05 12:35:54;;;;;;;1.90;1.80;;;20.20;99.90;;;;;;5217794;28;20046;-64
2022/07/05 12:38:29;;;;;;;2.38;2.17;;;20.30;99.90;;;;;;5215622;28;20032;-63
2022/07/05 12:41:02;;;;;;;1.65;1.55;;;20.50;99.90;;;;;;5220706;28;20229;-65
2022/07/05 12:43:50;;;;;;;1.98;1.77;;;20.90;99.90;;;;;;5238401;28;20020;-63
2022/07/05 12:46:37;;;;;;;1.63;1.52;;;20.70;99.90;;;;;;5238159;28;20021;-64
2022/07/05 12:49:10;;;;;;;1.90;1.70;;;20.60;99.90;;;;;;5217629;28;20021;-65
2022/07/05 12:51:44;;;;;;;2.67;1.88;;;20.80;99.90;;;;;;5202629;28;20536;-64
2022/07/05 13:00:10;;;;;;;2.10;1.58;;;22.60;99.90;;;;;;5232946;28;20031;-63
2022/07/05 13:02:49;;;;;;;2.90;1.73;;;23.30;99.90;;;;;;5236947;28;20038;-65
2022/07/05 13:05:23;;;;;;;1.67;1.58;;;23.30;99.90;;;;;;5219224;28;20059;-64
2022/07/05 13:07:57;;;;;;;1.58;1.45;;;23.60;99.90;;;;;;5223035;28;20120;-63
2022/07/05 13:10:31;;;;;;;1.48;1.38;;;23.50;99.90;;;;;;5210050;28;20025;-64
2022/07/05 13:13:02;;;;;;;1.70;1.60;;;23.10;99.90;;;;;;5223667;28;20036;-65
2022/07/05 13:15:39;;;;;;;1.38;1.27;;;23.00;99.90;;;;;;5216512;28;20039;-63
2022/07/05 13:18:10;;;;;;;1.50;1.40;;;23.00;99.90;;;;;;5207030;28;20031;-64
2022/07/05 13:20:42;;;;;;;1.40;1.30;;;22.80;99.90;;;;;;5218575;28;20313;-65
2022/07/05 13:23:13;;;;;;;1.38;1.27;;;22.80;99.90;;;;;;5236469;28;20249;-64
2022/07/05 13:25:46;;;;;;;1.48;1.38;;;22.80;99.90;;;;;;5236093;28;20026;-65
2022/07/05 13:28:19;;;;;;;1.65;1.40;;;22.90;99.90;;;;;;5221218;28;20265;-66
2022/07/05 13:30:50;;;;;;;2.13;1.33;;;23.30;99.90;;;;;;5219198;28;20234;-67
2022/07/05 13:33:22;;;;;;;2.50;1.60;;;23.30;99.90;;;;;;5221029;28;20039;-64
2022/07/05 13:35:56;;;;;;;1.80;1.70;;;22.90;99.90;;;;;;5240608;28;20039;-65
2022/07/05 13:38:27;;;;;;;2.03;1.63;;;22.70;99.90;;;;;;5240951;28;20252;-66
2022/07/05 13:40:59;;;;;;;1.55;1.45;;;22.80;99.90;;;;;;5220378;28;20035;-65
2022/07/05 13:43:30;;;;;;;3.92;2.03;;;22.60;99.90;;;;;;5240959;28;20149;-64
2022/07/05 13:46:01;;;;;;;1.70;1.60;;;22.70;99.90;;;;;;5241117;28;20146;-65
2022/07/05 13:48:33;;;;;;;2.10;1.90;;;22.70;99.90;;;;;;5236770;28;20036;-66
2022/07/05 13:51:07;;;;;;;5.82;1.90;;;22.60;99.90;;;;;;5238897;28;20340;-64